sensor_id;sensor_type;location;lat;lon;timestamp;temperature;humidity
21312;DHT22;18076;52.154;10.570;2023-02-20T00:01:15;5.50;99.90
21312;DHT22;18076;52.154;10.570;2023-02-20T00:03:40;5.50;99.90
21312;DHT22;18076;52.154;10.570;2023-02-20T00:06:06;5.60;99.90
21312;DHT22;18076;52.154;10.570;2023-02-20T00:08:31;5.60;99.90
21312;DHT22;18076;52.154;10.570;2023-02-20T00:10:57;5.70;99.90
21312;DHT22;18076;52.154;10.570;2023-02-20T00:13:22;5.70;99.90
21312;DHT22;18076;52.154;10.570;2023-02-20T00:15:48;5.70;99.90
21312;DHT22;18076;52.154;10.570;2023-02-20T00:18:13;5.70;99.90
21312;DHT22;18076;52.154;10.570;2023-02-20T00:20:39;5.70;99.90
21312;DHT22;18076;52.154;10.570;2023-02-20T00:23:04;5.70;99.90
21312;DHT22;18076;52.154;10.570;2023-02-20T00:25:30;5.70;99.90
21312;DHT22;18076;52.154;10.570;2023-02-20T00:27:56;5.70;99.90
21312;DHT22;18076;52.154;10.570;2023-02-20T00:30:22;5.70;99.90
21312;DHT22;18076;52.154;10.570;2023-02-20T00:32:48;5.80;99.90
21312;DHT22;18076;52.154;10.570;2023-02-20T00:35:14;5.80;99.90
21312;DHT22;18076;52.154;10.570;2023-02-20T00:37:39;5.80;99.90
21312;DHT22;18076;52.154;10.570;2023-02-20T00:40:05;5.80;99.90
21312;DHT22;18076;52.154;10.570;2023-02-20T00:42:31;5.80;99.90
21312;DHT22;18076;52.154;10.570;2023-02-20T00:44:56;5.90;99.90
21312;DHT22;18076;52.154;10.570;2023-02-20T00:47:22;5.90;99.90
21312;DHT22;18076;52.154;10.570;2023-02-20T00:49:47;5.90;99.90
21312;DHT22;18076;52.154;10.570;2023-02-20T00:52:13;5.90;99.90
21312;DHT22;18076;52.154;10.570;2023-02-20T00:54:38;6.00;99.90
21312;DHT22;18076;52.154;10.570;2023-02-20T00:57:04;6.00;99.90
21312;DHT22;18076;52.154;10.570;2023-02-20T00:59:30;6.00;99.90
21312;DHT22;18076;52.154;10.570;2023-02-20T01:01:55;6.00;99.90
21312;DHT22;18076;52.154;10.570;2023-02-20T01:04:21;6.10;99.90
21312;DHT22;18076;52.154;10.570;2023-02-20T01:06:46;6.10;99.90
21312;DHT22;18076;52.154;10.570;2023-02-20T01:09:12;6.10;99.90
21312;DHT22;18076;52.154;10.570;2023-02-20T01:11:39;6.10;99.90
21312;DHT22;18076;52.154;10.570;2023-02-20T01:14:05;6.20;99.90
21312;DHT22;18076;52.154;10.570;2023-02-20T01:16:31;6.20;99.90
21312;DHT22;18076;52.154;10.570;2023-02-20T01:18:56;6.20;99.90
21312;DHT22;18076;52.154;10.570;2023-02-20T01:21:22;6.30;99.90
21312;DHT22;18076;52.154;10.570;2023-02-20T01:23:47;6.30;99.90
21312;DHT22;18076;52.154;10.570;2023-02-20T01:26:13;6.30;99.90
21312;DHT22;18076;52.154;10.570;2023-02-20T01:28:38;6.30;99.90
21312;DHT22;18076;52.154;10.570;2023-02-20T01:31:04;6.30;99.90
21312;DHT22;18076;52.154;10.570;2023-02-20T01:33:29;6.30;99.90
21312;DHT22;18076;52.154;10.570;2023-02-20T01:35:55;6.30;99.90
21312;DHT22;18076;52.154;10.570;2023-02-20T01:38:20;6.30;99.90
21312;DHT22;18076;52.154;10.570;2023-02-20T01:40:46;6.40;99.90
21312;DHT22;18076;52.154;10.570;2023-02-20T01:43:13;6.40;99.90
21312;DHT22;18076;52.154;10.570;2023-02-20T01:45:39;6.40;99.90
21312;DHT22;18076;52.154;10.570;2023-02-20T01:48:05;6.40;99.90
21312;DHT22;18076;52.154;10.570;2023-02-20T01:50:35;6.40;99.90
21312;DHT22;18076;52.154;10.570;2023-02-20T01:53:03;6.40;99.90
21312;DHT22;18076;52.154;10.570;2023-02-20T01:55:31;6.40;99.90
21312;DHT22;18076;52.154;10.570;2023-02-20T02:00:43;6.50;99.90
21312;DHT22;18076;52.154;10.570;2023-02-20T02:03:10;6.50;99.90
21312;DHT22;18076;52.154;10.570;2023-02-20T02:05:36;6.40;99.90
21312;DHT22;18076;52.154;10.570;2023-02-20T02:08:03;6.40;99.90
21312;DHT22;18076;52.154;10.570;2023-02-20T02:10:42;6.40;99.90
21312;DHT22;18076;52.154;10.570;2023-02-20T02:13:10;6.50;99.90
21312;DHT22;18076;52.154;10.570;2023-02-20T02:15:36;6.50;99.90
21312;DHT22;18076;52.154;10.570;2023-02-20T02:38:32;6.30;99.90
21312;DHT22;18076;52.154;10.570;2023-02-20T02:43:42;6.30;99.90
21312;DHT22;18076;52.154;10.570;2023-02-20T02:46:13;6.30;99.90
21312;DHT22;18076;52.154;10.570;2023-02-20T02:48:45;6.20;99.90
21312;DHT22;18076;52.154;10.570;2023-02-20T02:51:12;6.20;99.90
21312;DHT22;18076;52.154;10.570;2023-02-20T02:53:40;6.20;99.90
21312;DHT22;18076;52.154;10.570;2023-02-20T02:56:06;6.10;99.90
21312;DHT22;18076;52.154;10.570;2023-02-20T02:58:47;6.10;99.90
21312;DHT22;18076;52.154;10.570;2023-02-20T03:01:13;6.10;99.90
21312;DHT22;18076;52.154;10.570;2023-02-20T03:03:39;6.10;99.90
21312;DHT22;18076;52.154;10.570;2023-02-20T03:06:10;6.10;99.90
21312;DHT22;18076;52.154;10.570;2023-02-20T03:08:43;6.10;99.90
21312;DHT22;18076;52.154;10.570;2023-02-20T03:11:15;6.10;99.90
21312;DHT22;18076;52.154;10.570;2023-02-20T03:13:55;6.10;99.90
21312;DHT22;18076;52.154;10.570;2023-02-20T03:16:45;6.20;99.90
21312;DHT22;18076;52.154;10.570;2023-02-20T03:19:15;6.20;99.90
21312;DHT22;18076;52.154;10.570;2023-02-20T03:21:42;6.20;99.90
21312;DHT22;18076;52.154;10.570;2023-02-20T03:24:10;6.20;99.90
21312;DHT22;18076;52.154;10.570;2023-02-20T03:26:36;6.20;99.90
21312;DHT22;18076;52.154;10.570;2023-02-20T03:29:06;6.20;99.90
21312;DHT22;18076;52.154;10.570;2023-02-20T03:31:40;6.20;99.90
21312;DHT22;18076;52.154;10.570;2023-02-20T03:37:16;6.20;99.90
21312;DHT22;18076;52.154;10.570;2023-02-20T03:39:59;6.20;99.90
21312;DHT22;18076;52.154;10.570;2023-02-20T03:42:45;6.20;99.90
21312;DHT22;18076;52.154;10.570;2023-02-20T03:45:30;6.30;99.90
21312;DHT22;18076;52.154;10.570;2023-02-20T03:47:58;6.30;99.90
21312;DHT22;18076;52.154;10.570;2023-02-20T03:50:26;6.30;99.90
21312;DHT22;18076;52.154;10.570;2023-02-20T03:53:10;6.30;99.90
21312;DHT22;18076;52.154;10.570;2023-02-20T03:55:36;6.30;99.90
21312;DHT22;18076;52.154;10.570;2023-02-20T03:58:02;6.30;99.90
21312;DHT22;18076;52.154;10.570;2023-02-20T04:00:30;6.30;99.90
21312;DHT22;18076;52.154;10.570;2023-02-20T04:02:58;6.40;99.90
21312;DHT22;18076;52.154;10.570;2023-02-20T04:05:25;6.40;99.90
21312;DHT22;18076;52.154;10.570;2023-02-20T04:07:54;6.40;99.90
21312;DHT22;18076;52.154;10.570;2023-02-20T04:10:23;6.40;99.90
21312;DHT22;18076;52.154;10.570;2023-02-20T04:12:49;6.40;99.90
21312;DHT22;18076;52.154;10.570;2023-02-20T04:15:15;6.40;99.90
21312;DHT22;18076;52.154;10.570;2023-02-20T04:17:56;6.40;99.90
21312;DHT22;18076;52.154;10.570;2023-02-20T04:20:24;6.40;99.90
21312;DHT22;18076;52.154;10.570;2023-02-20T04:22:50;6.40;99.90
21312;DHT22;18076;52.154;10.570;2023-02-20T04:25:19;6.40;99.90
21312;DHT22;18076;52.154;10.570;2023-02-20T04:27:47;6.50;99.90
21312;DHT22;18076;52.154;10.570;2023-02-20T04:30:12;6.50;99.90
21312;DHT22;18076;52.154;10.570;2023-02-20T04:32:38;6.60;99.90
21312;DHT22;18076;52.154;10.570;2023-02-20T04:35:03;6.60;99.90
21312;DHT22;18076;52.154;10.570;2023-02-20T04:37:29;6.60;99.90
21312;DHT22;18076;52.154;10.570;2023-02-20T04:39:54;6.50;99.90
21312;DHT22;18076;52.154;10.570;2023-02-20T04:42:20;6.50;99.90
21312;DHT22;18076;52.154;10.570;2023-02-20T04:44:46;6.60;99.90
21312;DHT22;18076;52.154;10.570;2023-02-20T04:47:12;6.60;99.90
21312;DHT22;18076;52.154;10.570;2023-02-20T04:49:38;6.60;99.90
21312;DHT22;18076;52.154;10.570;2023-02-20T04:52:04;6.60;99.90
21312;DHT22;18076;52.154;10.570;2023-02-20T04:54:29;6.60;99.90
21312;DHT22;18076;52.154;10.570;2023-02-20T04:56:55;6.60;99.90
21312;DHT22;18076;52.154;10.570;2023-02-20T04:59:20;6.60;99.90
21312;DHT22;18076;52.154;10.570;2023-02-20T05:01:46;6.60;99.90
21312;DHT22;18076;52.154;10.570;2023-02-20T05:04:16;6.60;99.90
21312;DHT22;18076;52.154;10.570;2023-02-20T05:06:43;6.50;99.90
21312;DHT22;18076;52.154;10.570;2023-02-20T05:09:09;6.50;99.90
21312;DHT22;18076;52.154;10.570;2023-02-20T05:11:36;6.50;99.90
21312;DHT22;18076;52.154;10.570;2023-02-20T05:14:02;6.50;99.90
21312;DHT22;18076;52.154;10.570;2023-02-20T05:16:27;6.50;99.90
21312;DHT22;18076;52.154;10.570;2023-02-20T05:18:53;6.40;99.90
21312;DHT22;18076;52.154;10.570;2023-02-20T05:21:18;6.40;99.90
21312;DHT22;18076;52.154;10.570;2023-02-20T05:24:02;6.40;99.90
21312;DHT22;18076;52.154;10.570;2023-02-20T05:26:28;6.40;99.90
21312;DHT22;18076;52.154;10.570;2023-02-20T05:28:53;6.40;99.90
21312;DHT22;18076;52.154;10.570;2023-02-20T05:31:19;6.50;99.90
21312;DHT22;18076;52.154;10.570;2023-02-20T05:33:45;6.50;99.90
21312;DHT22;18076;52.154;10.570;2023-02-20T05:36:10;6.50;99.90
21312;DHT22;18076;52.154;10.570;2023-02-20T05:38:36;6.50;99.90
21312;DHT22;18076;52.154;10.570;2023-02-20T05:41:01;6.50;99.90
21312;DHT22;18076;52.154;10.570;2023-02-20T05:43:27;6.50;99.90
21312;DHT22;18076;52.154;10.570;2023-02-20T05:45:52;6.50;99.90
21312;DHT22;18076;52.154;10.570;2023-02-20T05:48:18;6.50;99.90
21312;DHT22;18076;52.154;10.570;2023-02-20T05:50:43;6.60;99.90
21312;DHT22;18076;52.154;10.570;2023-02-20T05:53:09;6.60;99.90
21312;DHT22;18076;52.154;10.570;2023-02-20T05:55:34;6.50;99.90
21312;DHT22;18076;52.154;10.570;2023-02-20T05:58:00;6.50;99.90
21312;DHT22;18076;52.154;10.570;2023-02-20T06:00:25;6.60;99.90
21312;DHT22;18076;52.154;10.570;2023-02-20T06:02:51;6.60;99.90
21312;DHT22;18076;52.154;10.570;2023-02-20T06:05:16;6.60;99.90
21312;DHT22;18076;52.154;10.570;2023-02-20T06:07:45;6.60;99.90
21312;DHT22;18076;52.154;10.570;2023-02-20T06:10:11;6.60;99.90
21312;DHT22;18076;52.154;10.570;2023-02-20T06:12:36;6.60;99.90
21312;DHT22;18076;52.154;10.570;2023-02-20T06:15:03;6.60;99.90
21312;DHT22;18076;52.154;10.570;2023-02-20T06:17:32;6.70;99.90
21312;DHT22;18076;52.154;10.570;2023-02-20T06:19:57;6.70;99.90
21312;DHT22;18076;52.154;10.570;2023-02-20T06:22:23;6.70;99.90
21312;DHT22;18076;52.154;10.570;2023-02-20T06:24:48;6.70;99.90
21312;DHT22;18076;52.154;10.570;2023-02-20T06:27:15;6.70;99.90
21312;DHT22;18076;52.154;10.570;2023-02-20T06:29:40;6.70;99.90
21312;DHT22;18076;52.154;10.570;2023-02-20T06:32:06;6.70;99.90
21312;DHT22;18076;52.154;10.570;2023-02-20T06:34:31;6.70;99.90
21312;DHT22;18076;52.154;10.570;2023-02-20T06:36:58;6.70;99.90
21312;DHT22;18076;52.154;10.570;2023-02-20T06:39:23;6.70;99.90
21312;DHT22;18076;52.154;10.570;2023-02-20T06:41:49;6.70;99.90
21312;DHT22;18076;52.154;10.570;2023-02-20T06:44:15;6.80;99.90
21312;DHT22;18076;52.154;10.570;2023-02-20T06:46:40;6.70;99.90
21312;DHT22;18076;52.154;10.570;2023-02-20T06:49:06;6.70;99.90
21312;DHT22;18076;52.154;10.570;2023-02-20T06:51:32;6.70;99.90
21312;DHT22;18076;52.154;10.570;2023-02-20T06:53:58;6.70;99.90
21312;DHT22;18076;52.154;10.570;2023-02-20T06:56:25;6.80;99.90
21312;DHT22;18076;52.154;10.570;2023-02-20T06:58:53;6.80;99.90
21312;DHT22;18076;52.154;10.570;2023-02-20T07:01:20;6.80;99.90
21312;DHT22;18076;52.154;10.570;2023-02-20T07:03:46;6.90;99.90
21312;DHT22;18076;52.154;10.570;2023-02-20T07:06:15;6.90;99.90
21312;DHT22;18076;52.154;10.570;2023-02-20T07:08:41;6.90;99.90
21312;DHT22;18076;52.154;10.570;2023-02-20T07:11:07;6.90;99.90
21312;DHT22;18076;52.154;10.570;2023-02-20T07:13:32;6.90;99.90
21312;DHT22;18076;52.154;10.570;2023-02-20T07:15:58;6.90;99.90
21312;DHT22;18076;52.154;10.570;2023-02-20T07:18:23;7.00;99.90
21312;DHT22;18076;52.154;10.570;2023-02-20T07:20:54;7.00;99.90
21312;DHT22;18076;52.154;10.570;2023-02-20T07:23:20;7.00;99.90
21312;DHT22;18076;52.154;10.570;2023-02-20T07:25:45;7.00;99.90
21312;DHT22;18076;52.154;10.570;2023-02-20T07:28:12;7.00;99.90
21312;DHT22;18076;52.154;10.570;2023-02-20T07:30:38;7.10;99.90
21312;DHT22;18076;52.154;10.570;2023-02-20T07:33:04;7.10;99.90
21312;DHT22;18076;52.154;10.570;2023-02-20T07:35:29;7.10;99.90
21312;DHT22;18076;52.154;10.570;2023-02-20T07:37:55;7.10;99.90
21312;DHT22;18076;52.154;10.570;2023-02-20T07:40:23;7.20;99.90
21312;DHT22;18076;52.154;10.570;2023-02-20T07:42:49;7.20;99.90
21312;DHT22;18076;52.154;10.570;2023-02-20T07:45:14;7.20;99.90
21312;DHT22;18076;52.154;10.570;2023-02-20T07:47:40;7.20;99.90
21312;DHT22;18076;52.154;10.570;2023-02-20T07:50:05;7.20;99.90
21312;DHT22;18076;52.154;10.570;2023-02-20T07:52:31;7.30;99.90
21312;DHT22;18076;52.154;10.570;2023-02-20T07:54:59;7.30;99.90
21312;DHT22;18076;52.154;10.570;2023-02-20T07:57:24;7.30;99.90
21312;DHT22;18076;52.154;10.570;2023-02-20T07:59:50;7.40;99.90
21312;DHT22;18076;52.154;10.570;2023-02-20T08:02:16;7.30;99.90
21312;DHT22;18076;52.154;10.570;2023-02-20T08:04:41;7.40;99.90
21312;DHT22;18076;52.154;10.570;2023-02-20T08:07:07;7.40;99.90
21312;DHT22;18076;52.154;10.570;2023-02-20T08:09:33;7.40;99.90
21312;DHT22;18076;52.154;10.570;2023-02-20T08:11:58;7.40;99.90
21312;DHT22;18076;52.154;10.570;2023-02-20T08:14:24;7.50;99.90
21312;DHT22;18076;52.154;10.570;2023-02-20T08:16:49;7.50;99.90
21312;DHT22;18076;52.154;10.570;2023-02-20T08:19:15;7.50;99.90
21312;DHT22;18076;52.154;10.570;2023-02-20T08:21:40;7.50;99.90
21312;DHT22;18076;52.154;10.570;2023-02-20T08:24:06;7.60;99.90
21312;DHT22;18076;52.154;10.570;2023-02-20T08:26:32;7.60;99.90
21312;DHT22;18076;52.154;10.570;2023-02-20T08:28:59;7.60;99.90
21312;DHT22;18076;52.154;10.570;2023-02-20T08:31:24;7.60;99.90
21312;DHT22;18076;52.154;10.570;2023-02-20T08:33:51;7.70;99.90
21312;DHT22;18076;52.154;10.570;2023-02-20T08:36:16;7.60;99.90
21312;DHT22;18076;52.154;10.570;2023-02-20T08:38:43;7.70;99.90
21312;DHT22;18076;52.154;10.570;2023-02-20T08:41:09;7.70;99.90
21312;DHT22;18076;52.154;10.570;2023-02-20T08:43:35;7.80;99.90
21312;DHT22;18076;52.154;10.570;2023-02-20T08:46:02;7.80;99.90
21312;DHT22;18076;52.154;10.570;2023-02-20T08:48:27;7.80;99.90
21312;DHT22;18076;52.154;10.570;2023-02-20T08:50:53;7.90;99.90
21312;DHT22;18076;52.154;10.570;2023-02-20T08:53:19;8.00;99.90
21312;DHT22;18076;52.154;10.570;2023-02-20T08:55:44;8.00;99.90
21312;DHT22;18076;52.154;10.570;2023-02-20T08:58:10;8.10;99.90
21312;DHT22;18076;52.154;10.570;2023-02-20T09:00:36;8.30;99.90
21312;DHT22;18076;52.154;10.570;2023-02-20T09:03:01;8.40;99.90
21312;DHT22;18076;52.154;10.570;2023-02-20T09:05:31;8.60;99.90
21312;DHT22;18076;52.154;10.570;2023-02-20T09:07:57;8.70;99.90
21312;DHT22;18076;52.154;10.570;2023-02-20T09:10:22;8.80;99.90
21312;DHT22;18076;52.154;10.570;2023-02-20T09:12:48;9.00;99.90
21312;DHT22;18076;52.154;10.570;2023-02-20T09:15:14;9.30;99.90
21312;DHT22;18076;52.154;10.570;2023-02-20T09:17:43;9.40;99.90
21312;DHT22;18076;52.154;10.570;2023-02-20T09:20:10;9.30;99.90
21312;DHT22;18076;52.154;10.570;2023-02-20T09:22:35;9.20;99.90
21312;DHT22;18076;52.154;10.570;2023-02-20T09:25:03;9.10;99.90
21312;DHT22;18076;52.154;10.570;2023-02-20T09:27:29;9.20;99.90
21312;DHT22;18076;52.154;10.570;2023-02-20T09:29:55;9.30;99.90
21312;DHT22;18076;52.154;10.570;2023-02-20T09:32:20;9.70;99.90
21312;DHT22;18076;52.154;10.570;2023-02-20T09:34:46;10.10;99.90
21312;DHT22;18076;52.154;10.570;2023-02-20T09:37:11;10.30;99.90
21312;DHT22;18076;52.154;10.570;2023-02-20T09:39:37;10.70;99.90
21312;DHT22;18076;52.154;10.570;2023-02-20T09:42:09;10.70;99.90
21312;DHT22;18076;52.154;10.570;2023-02-20T09:49:42;10.40;99.90
21312;DHT22;18076;52.154;10.570;2023-02-20T09:52:09;10.40;99.90
21312;DHT22;18076;52.154;10.570;2023-02-20T09:54:40;10.40;99.90
21312;DHT22;18076;52.154;10.570;2023-02-20T09:57:17;10.40;99.90
21312;DHT22;18076;52.154;10.570;2023-02-20T09:59:46;10.40;99.90
21312;DHT22;18076;52.154;10.570;2023-02-20T10:02:15;10.60;99.90
21312;DHT22;18076;52.154;10.570;2023-02-20T10:04:42;10.50;99.90
21312;DHT22;18076;52.154;10.570;2023-02-20T10:07:18;10.50;99.90
21312;DHT22;18076;52.154;10.570;2023-02-20T10:09:46;10.60;99.90
21312;DHT22;18076;52.154;10.570;2023-02-20T10:12:15;10.50;99.90
21312;DHT22;18076;52.154;10.570;2023-02-20T10:17:39;10.40;99.90
21312;DHT22;18076;52.154;10.570;2023-02-20T10:20:24;10.40;99.90
21312;DHT22;18076;52.154;10.570;2023-02-20T10:25:27;10.50;99.90
21312;DHT22;18076;52.154;10.570;2023-02-20T10:27:57;10.50;99.90
21312;DHT22;18076;52.154;10.570;2023-02-20T10:30:59;10.50;99.90
21312;DHT22;18076;52.154;10.570;2023-02-20T10:33:21;10.50;99.90
21312;DHT22;18076;52.154;10.570;2023-02-20T10:38:43;10.30;99.90
21312;DHT22;18076;52.154;10.570;2023-02-20T10:41:14;10.20;99.90
21312;DHT22;18076;52.154;10.570;2023-02-20T10:43:45;10.00;99.90
21312;DHT22;18076;52.154;10.570;2023-02-20T10:46:16;9.90;99.90
21312;DHT22;18076;52.154;10.570;2023-02-20T10:48:44;9.80;99.90
21312;DHT22;18076;52.154;10.570;2023-02-20T10:51:16;9.70;99.90
21312;DHT22;18076;52.154;10.570;2023-02-20T10:53:47;9.60;99.90
21312;DHT22;18076;52.154;10.570;2023-02-20T10:56:16;9.70;99.90
21312;DHT22;18076;52.154;10.570;2023-02-20T11:01:11;9.70;99.90
21312;DHT22;18076;52.154;10.570;2023-02-20T11:06:08;9.60;99.90
21312;DHT22;18076;52.154;10.570;2023-02-20T11:08:34;9.60;99.90
21312;DHT22;18076;52.154;10.570;2023-02-20T11:11:05;9.60;99.90
21312;DHT22;18076;52.154;10.570;2023-02-20T11:13:36;9.60;99.90
21312;DHT22;18076;52.154;10.570;2023-02-20T11:16:02;9.60;99.90
21312;DHT22;18076;52.154;10.570;2023-02-20T11:18:32;9.70;99.90
21312;DHT22;18076;52.154;10.570;2023-02-20T11:20:59;9.60;99.90
21312;DHT22;18076;52.154;10.570;2023-02-20T11:26:21;9.60;99.90
21312;DHT22;18076;52.154;10.570;2023-02-20T11:28:55;9.50;99.90
21312;DHT22;18076;52.154;10.570;2023-02-20T11:31:21;9.50;99.90
21312;DHT22;18076;52.154;10.570;2023-02-20T11:33:47;9.50;99.90
21312;DHT22;18076;52.154;10.570;2023-02-20T11:36:18;9.50;99.90
21312;DHT22;18076;52.154;10.570;2023-02-20T11:38:47;9.40;99.90
21312;DHT22;18076;52.154;10.570;2023-02-20T11:41:21;9.40;99.90
21312;DHT22;18076;52.154;10.570;2023-02-20T11:43:48;9.40;99.90
21312;DHT22;18076;52.154;10.570;2023-02-20T11:46:28;9.40;99.90
21312;DHT22;18076;52.154;10.570;2023-02-20T11:49:07;9.30;99.90
21312;DHT22;18076;52.154;10.570;2023-02-20T11:51:39;9.30;99.90
21312;DHT22;18076;52.154;10.570;2023-02-20T11:54:06;9.30;99.90
21312;DHT22;18076;52.154;10.570;2023-02-20T11:56:32;9.30;99.90
21312;DHT22;18076;52.154;10.570;2023-02-20T12:01:42;9.30;99.90
21312;DHT22;18076;52.154;10.570;2023-02-20T12:04:17;9.30;99.90
21312;DHT22;18076;52.154;10.570;2023-02-20T12:06:43;9.30;99.90
21312;DHT22;18076;52.154;10.570;2023-02-20T12:09:16;9.30;99.90
21312;DHT22;18076;52.154;10.570;2023-02-20T12:11:42;9.30;99.90
21312;DHT22;18076;52.154;10.570;2023-02-20T12:14:10;9.30;99.90
21312;DHT22;18076;52.154;10.570;2023-02-20T12:16:43;9.30;99.90
21312;DHT22;18076;52.154;10.570;2023-02-20T12:32:00;9.40;99.90
21312;DHT22;18076;52.154;10.570;2023-02-20T12:37:06;9.40;99.90
21312;DHT22;18076;52.154;10.570;2023-02-20T12:47:34;9.30;99.90
21312;DHT22;18076;52.154;10.570;2023-02-20T12:55:17;9.30;99.90
21312;DHT22;18076;52.154;10.570;2023-02-20T12:58:03;9.20;99.90
21312;DHT22;18076;52.154;10.570;2023-02-20T13:00:52;9.20;99.90
21312;DHT22;18076;52.154;10.570;2023-02-20T13:03:19;9.20;99.90
21312;DHT22;18076;52.154;10.570;2023-02-20T13:05:48;9.20;99.90
21312;DHT22;18076;52.154;10.570;2023-02-20T13:08:17;9.20;99.90
21312;DHT22;18076;52.154;10.570;2023-02-20T13:11:04;9.20;99.90
21312;DHT22;18076;52.154;10.570;2023-02-20T13:13:34;9.20;99.90
21312;DHT22;18076;52.154;10.570;2023-02-20T13:18:40;9.20;99.90
21312;DHT22;18076;52.154;10.570;2023-02-20T13:21:09;9.10;99.90
21312;DHT22;18076;52.154;10.570;2023-02-20T13:23:36;9.10;99.90
21312;DHT22;18076;52.154;10.570;2023-02-20T13:26:02;9.00;99.90
21312;DHT22;18076;52.154;10.570;2023-02-20T13:28:45;9.00;99.90
21312;DHT22;18076;52.154;10.570;2023-02-20T13:31:39;9.00;99.90
21312;DHT22;18076;52.154;10.570;2023-02-20T13:36:42;9.00;99.90
21312;DHT22;18076;52.154;10.570;2023-02-20T13:46:56;8.80;99.90
21312;DHT22;18076;52.154;10.570;2023-02-20T13:52:26;8.70;99.90
21312;DHT22;18076;52.154;10.570;2023-02-20T13:54:48;8.80;99.90
21312;DHT22;18076;52.154;10.570;2023-02-20T13:57:17;8.80;99.90
21312;DHT22;18076;52.154;10.570;2023-02-20T13:59:42;8.70;99.90
21312;DHT22;18076;52.154;10.570;2023-02-20T14:04:37;8.80;99.90
21312;DHT22;18076;52.154;10.570;2023-02-20T14:07:02;8.80;99.90
21312;DHT22;18076;52.154;10.570;2023-02-20T14:09:28;8.80;99.90
21312;DHT22;18076;52.154;10.570;2023-02-20T14:12:04;8.80;99.90
21312;DHT22;18076;52.154;10.570;2023-02-20T14:14:33;8.80;99.90
21312;DHT22;18076;52.154;10.570;2023-02-20T14:17:07;8.90;99.90
21312;DHT22;18076;52.154;10.570;2023-02-20T14:19:34;8.90;99.90
21312;DHT22;18076;52.154;10.570;2023-02-20T14:22:22;8.90;99.90
21312;DHT22;18076;52.154;10.570;2023-02-20T14:27:32;8.90;99.90
21312;DHT22;18076;52.154;10.570;2023-02-20T14:30:11;8.90;99.90
21312;DHT22;18076;52.154;10.570;2023-02-20T14:32:36;8.90;99.90
21312;DHT22;18076;52.154;10.570;2023-02-20T14:42:36;8.90;99.90
21312;DHT22;18076;52.154;10.570;2023-02-20T14:45:04;8.90;99.90
21312;DHT22;18076;52.154;10.570;2023-02-20T14:47:31;8.90;99.90
21312;DHT22;18076;52.154;10.570;2023-02-20T14:55:27;9.00;99.90
21312;DHT22;18076;52.154;10.570;2023-02-20T14:57:52;9.00;99.90
21312;DHT22;18076;52.154;10.570;2023-02-20T15:02:47;9.00;99.90
21312;DHT22;18076;52.154;10.570;2023-02-20T15:05:15;8.90;99.90
21312;DHT22;18076;52.154;10.570;2023-02-20T15:07:44;8.90;99.90
21312;DHT22;18076;52.154;10.570;2023-02-20T15:12:55;8.90;99.90
21312;DHT22;18076;52.154;10.570;2023-02-20T15:15:21;8.90;99.90
21312;DHT22;18076;52.154;10.570;2023-02-20T15:17:47;8.90;99.90
21312;DHT22;18076;52.154;10.570;2023-02-20T15:20:16;8.80;99.90
21312;DHT22;18076;52.154;10.570;2023-02-20T15:22:42;8.90;99.90
21312;DHT22;18076;52.154;10.570;2023-02-20T15:27:36;8.90;99.90
21312;DHT22;18076;52.154;10.570;2023-02-20T15:30:07;8.90;99.90
21312;DHT22;18076;52.154;10.570;2023-02-20T15:32:33;8.90;99.90
21312;DHT22;18076;52.154;10.570;2023-02-20T15:34:59;8.80;99.90
21312;DHT22;18076;52.154;10.570;2023-02-20T15:37:28;8.80;99.90
21312;DHT22;18076;52.154;10.570;2023-02-20T15:39:54;8.70;99.90
21312;DHT22;18076;52.154;10.570;2023-02-20T15:42:21;8.70;99.90
21312;DHT22;18076;52.154;10.570;2023-02-20T15:44:47;8.70;99.90
21312;DHT22;18076;52.154;10.570;2023-02-20T15:47:13;8.60;99.90
21312;DHT22;18076;52.154;10.570;2023-02-20T15:49:39;8.60;99.90
21312;DHT22;18076;52.154;10.570;2023-02-20T15:52:06;8.60;99.90
21312;DHT22;18076;52.154;10.570;2023-02-20T15:54:34;8.60;99.90
21312;DHT22;18076;52.154;10.570;2023-02-20T15:56:59;8.60;99.90
21312;DHT22;18076;52.154;10.570;2023-02-20T15:59:25;8.60;99.90
21312;DHT22;18076;52.154;10.570;2023-02-20T16:01:50;8.60;99.90
21312;DHT22;18076;52.154;10.570;2023-02-20T16:04:16;8.60;99.90
21312;DHT22;18076;52.154;10.570;2023-02-20T16:06:42;8.70;99.90
21312;DHT22;18076;52.154;10.570;2023-02-20T16:09:08;8.70;99.90
21312;DHT22;18076;52.154;10.570;2023-02-20T16:11:44;8.70;99.90
21312;DHT22;18076;52.154;10.570;2023-02-20T16:14:11;8.70;99.90
21312;DHT22;18076;52.154;10.570;2023-02-20T16:16:38;8.70;99.90
21312;DHT22;18076;52.154;10.570;2023-02-20T16:19:10;8.70;99.90
21312;DHT22;18076;52.154;10.570;2023-02-20T16:21:36;8.60;99.90
21312;DHT22;18076;52.154;10.570;2023-02-20T16:24:01;8.60;99.90
21312;DHT22;18076;52.154;10.570;2023-02-20T16:26:27;8.60;99.90
21312;DHT22;18076;52.154;10.570;2023-02-20T16:28:56;8.60;99.90
21312;DHT22;18076;52.154;10.570;2023-02-20T16:31:32;8.60;99.90
21312;DHT22;18076;52.154;10.570;2023-02-20T16:34:08;8.60;99.90
21312;DHT22;18076;52.154;10.570;2023-02-20T16:36:34;8.60;99.90
21312;DHT22;18076;52.154;10.570;2023-02-20T16:38:59;8.60;99.90
21312;DHT22;18076;52.154;10.570;2023-02-20T16:41:25;8.60;99.90
21312;DHT22;18076;52.154;10.570;2023-02-20T16:43:50;8.60;99.90
21312;DHT22;18076;52.154;10.570;2023-02-20T16:46:16;8.60;99.90
21312;DHT22;18076;52.154;10.570;2023-02-20T16:48:41;8.60;99.90
21312;DHT22;18076;52.154;10.570;2023-02-20T16:51:13;8.70;99.90
21312;DHT22;18076;52.154;10.570;2023-02-20T16:53:44;8.70;99.90
21312;DHT22;18076;52.154;10.570;2023-02-20T16:56:09;8.70;99.90
21312;DHT22;18076;52.154;10.570;2023-02-20T16:58:35;8.60;99.90
21312;DHT22;18076;52.154;10.570;2023-02-20T17:01:03;8.60;99.90
21312;DHT22;18076;52.154;10.570;2023-02-20T17:03:30;8.60;99.90
21312;DHT22;18076;52.154;10.570;2023-02-20T17:05:56;8.60;99.90
21312;DHT22;18076;52.154;10.570;2023-02-20T17:08:25;8.60;99.90
21312;DHT22;18076;52.154;10.570;2023-02-20T17:10:50;8.60;99.90
21312;DHT22;18076;52.154;10.570;2023-02-20T17:13:16;8.60;99.90
21312;DHT22;18076;52.154;10.570;2023-02-20T17:15:41;8.70;99.90
21312;DHT22;18076;52.154;10.570;2023-02-20T17:18:09;8.70;99.90
21312;DHT22;18076;52.154;10.570;2023-02-20T17:20:35;8.70;99.90
21312;DHT22;18076;52.154;10.570;2023-02-20T17:23:01;8.70;99.90
21312;DHT22;18076;52.154;10.570;2023-02-20T17:25:29;8.80;99.90
21312;DHT22;18076;52.154;10.570;2023-02-20T17:27:55;8.70;99.90
21312;DHT22;18076;52.154;10.570;2023-02-20T17:30:21;8.70;99.90
21312;DHT22;18076;52.154;10.570;2023-02-20T17:32:47;8.70;99.90
21312;DHT22;18076;52.154;10.570;2023-02-20T17:35:13;8.60;99.90
21312;DHT22;18076;52.154;10.570;2023-02-20T17:37:39;8.60;99.90